createdAt,value
2022-09-23T00:01:20.801Z,15.90
2022-09-23T00:03:49.057Z,15.07
2022-09-23T00:06:24.106Z,18.13
2022-09-23T00:08:52.347Z,15.75
2022-09-23T00:11:25.557Z,16.17
2022-09-23T00:13:57.223Z,17.30
2022-09-23T00:16:28.995Z,18.20
2022-09-23T00:18:56.582Z,18.20
2022-09-23T00:21:25.225Z,19.27
2022-09-23T00:23:52.287Z,15.82
2022-09-23T00:26:21.923Z,16.77
2022-09-23T00:28:50.710Z,16.52
2022-09-23T00:31:25.859Z,15.93
2022-09-23T00:34:01.257Z,17.40
2022-09-23T00:36:29.626Z,19.55
2022-09-23T00:38:57.117Z,19.02
2022-09-23T00:41:25.795Z,16.38
2022-09-23T00:43:59.583Z,16.33
2022-09-23T00:46:40.449Z,17.67
2022-09-23T00:49:20.509Z,18.13
2022-09-23T00:51:55.415Z,17.60
2022-09-23T00:54:24.723Z,16.73
2022-09-23T00:56:51.986Z,17.90
2022-09-23T00:59:20.612Z,16.55
2022-09-23T01:01:49.627Z,19.50
2022-09-23T01:04:16.836Z,17.08
2022-09-23T01:06:44.379Z,16.65
2022-09-23T01:09:11.351Z,17.13
2022-09-23T01:12:00.174Z,16.33
2022-09-23T01:14:38.672Z,16.17
2022-09-23T01:17:15.437Z,17.17
2022-09-23T01:20:31.850Z,16.50
2022-09-23T01:23:29.347Z,16.35
2022-09-23T01:26:11.505Z,17.08
2022-09-23T01:29:17.848Z,16.63
2022-09-23T01:32:37.078Z,19.95
2022-09-23T01:35:13.397Z,17.27
2022-09-23T01:38:24.594Z,15.30
2022-09-23T01:41:22.562Z,18.98
2022-09-23T01:43:58.137Z,18.13
2022-09-23T01:46:34.345Z,17.35
2022-09-23T01:49:31.454Z,17.55
2022-09-23T01:52:15.884Z,17.75
2022-09-23T01:54:55.128Z,19.27
2022-09-23T01:57:32.540Z,18.65
2022-09-23T02:00:12.262Z,16.75
2022-09-23T02:03:00.365Z,16.67
2022-09-23T02:05:40.732Z,19.35
2022-09-23T02:08:56.528Z,19.92
2022-09-23T02:11:23.969Z,17.75
2022-09-23T02:13:59.980Z,18.52
2022-09-23T02:19:09.690Z,18.08
2022-09-23T02:21:44.861Z,18.20
2022-09-23T02:24:17.441Z,16.90
2022-09-23T02:26:53.976Z,16.45
2022-09-23T02:29:39.054Z,17.25
2022-09-23T02:32:18.530Z,18.30
2022-09-23T02:35:05.795Z,18.30
2022-09-23T02:38:26.644Z,16.88
2022-09-23T02:41:10.741Z,18.70
2022-09-23T02:43:50.247Z,18.27
2022-09-23T02:46:17.867Z,16.65
2022-09-23T02:48:53.642Z,18.58
2022-09-23T02:51:20.976Z,17.65
2022-09-23T02:53:48.159Z,17.55
2022-09-23T02:56:21.016Z,17.77
2022-09-23T02:58:51.872Z,17.38
2022-09-23T03:02:04.564Z,17.35
2022-09-23T03:04:47.406Z,17.98
2022-09-23T03:07:21.637Z,17.77
2022-09-23T03:10:03.964Z,19.02
2022-09-23T03:13:01.811Z,17.23
2022-09-23T03:15:46.581Z,18.70
2022-09-23T03:18:20.373Z,18.83
2022-09-23T03:21:03.170Z,19.30
2022-09-23T03:23:37.957Z,18.90
2022-09-23T03:26:18.848Z,19.95
2022-09-23T03:28:46.490Z,17.92
2022-09-23T03:31:15.300Z,18.40
2022-09-23T03:33:52.949Z,18.00
2022-09-23T03:36:51.538Z,18.42
2022-09-23T03:39:29.416Z,17.77
2022-09-23T03:42:02.231Z,18.02
2022-09-23T03:44:29.712Z,18.20
2022-09-23T03:47:02.280Z,18.70
2022-09-23T03:49:34.914Z,19.17
2022-09-23T03:52:03.434Z,17.92
2022-09-23T03:54:30.977Z,17.77
2022-09-23T03:56:58.937Z,18.25
2022-09-23T03:59:27.189Z,17.70
2022-09-23T04:01:55.583Z,20.65
2022-09-23T04:04:22.680Z,17.65
2022-09-23T04:06:49.873Z,17.65
2022-09-23T04:09:16.939Z,17.45
2022-09-23T04:11:43.902Z,17.33
2022-09-23T04:14:12.105Z,18.75
2022-09-23T04:16:39.561Z,18.70
2022-09-23T04:19:11.324Z,18.80
2022-09-23T04:21:39.195Z,20.17
2022-09-23T04:24:06.601Z,21.25
2022-09-23T04:26:34.706Z,18.65
2022-09-23T04:29:02.393Z,18.65
2022-09-23T04:31:29.476Z,19.30
2022-09-23T04:33:56.914Z,17.95
2022-09-23T04:36:24.222Z,17.35
2022-09-23T04:38:51.661Z,18.45
2022-09-23T04:41:19.860Z,19.05
2022-09-23T04:43:47.064Z,17.92
2022-09-23T04:46:16.245Z,22.85
2022-09-23T04:48:43.971Z,18.85
2022-09-23T04:51:14.705Z,18.85
2022-09-23T04:53:45.560Z,17.33
2022-09-23T04:56:23.288Z,19.05
2022-09-23T04:58:50.949Z,19.35
2022-09-23T05:01:26.976Z,18.10
2022-09-23T05:03:57.939Z,17.60
2022-09-23T05:06:25.491Z,18.35
2022-09-23T05:08:57.833Z,18.13
2022-09-23T05:11:26.346Z,16.20
2022-09-23T05:13:54.525Z,17.42
2022-09-23T05:16:23.444Z,17.02
2022-09-23T05:18:52.461Z,18.67
2022-09-23T05:21:22.737Z,17.55
2022-09-23T05:23:55.499Z,18.42
2022-09-23T05:26:26.422Z,17.33
2022-09-23T05:28:54.242Z,17.00
2022-09-23T05:31:24.156Z,17.55
2022-09-23T05:34:02.072Z,20.35
2022-09-23T05:36:35.726Z,16.63
2022-09-23T05:39:06.507Z,17.23
2022-09-23T05:41:34.008Z,17.15
2022-09-23T05:44:01.701Z,16.95
2022-09-23T05:46:31.225Z,16.70
2022-09-23T05:49:08.106Z,17.13
2022-09-23T05:51:38.518Z,19.00
2022-09-23T05:54:06.088Z,15.50
2022-09-23T05:56:34.827Z,19.17
2022-09-23T05:59:04.092Z,17.15
2022-09-23T06:01:35.142Z,17.48
2022-09-23T06:04:04.929Z,16.75
2022-09-23T06:06:41.466Z,16.58
2022-09-23T06:09:16.188Z,19.25
2022-09-23T06:11:43.417Z,19.40
2022-09-23T06:14:13.801Z,16.88
2022-09-23T06:16:40.969Z,17.55
2022-09-23T06:19:08.115Z,16.65
2022-09-23T06:21:38.545Z,16.73
2022-09-23T06:24:07.022Z,18.85
2022-09-23T06:26:36.317Z,17.33
2022-09-23T06:29:09.903Z,19.30
2022-09-23T06:31:37.420Z,15.15
2022-09-23T06:34:11.515Z,15.80
2022-09-23T06:36:44.309Z,18.13
2022-09-23T06:39:16.715Z,15.65
2022-09-23T06:41:45.190Z,16.02
2022-09-23T06:44:14.220Z,14.48
2022-09-23T06:46:41.579Z,16.38
2022-09-23T06:49:08.839Z,13.02
2022-09-23T06:51:35.962Z,15.15
2022-09-23T06:54:03.463Z,15.07
2022-09-23T06:56:33.636Z,15.85
2022-09-23T06:59:05.582Z,14.13
2022-09-23T07:01:33.404Z,15.82
2022-09-23T07:04:01.731Z,12.35
2022-09-23T07:06:29.030Z,11.32
2022-09-23T07:08:56.076Z,12.63
2022-09-23T07:11:23.363Z,13.68
2022-09-23T07:13:50.525Z,14.55
2022-09-23T07:16:17.875Z,16.40
2022-09-23T07:18:45.700Z,13.10
2022-09-23T07:21:19.513Z,16.00
2022-09-23T07:23:50.350Z,12.77
2022-09-23T07:26:19.475Z,13.18
2022-09-23T07:28:46.720Z,13.57
2022-09-23T07:31:25.889Z,12.52
2022-09-23T07:33:57.945Z,13.18
2022-09-23T07:36:27.898Z,26.17
2022-09-23T07:39:00.574Z,14.75
2022-09-23T07:41:28.919Z,16.70
2022-09-23T07:43:58.925Z,14.73
2022-09-23T07:46:29.987Z,11.77
2022-09-23T07:48:57.897Z,11.80
2022-09-23T07:51:38.204Z,11.60
2022-09-23T07:54:13.529Z,12.00
2022-09-23T07:56:41.871Z,15.50
2022-09-23T07:59:15.315Z,16.95
2022-09-23T08:01:48.155Z,12.55
2022-09-23T08:04:20.176Z,11.57
2022-09-23T08:06:54.335Z,14.38
2022-09-23T08:09:28.746Z,13.18
2022-09-23T08:11:56.121Z,14.25
2022-09-23T08:14:23.439Z,14.35
2022-09-23T08:16:52.245Z,16.52
2022-09-23T08:19:19.478Z,15.98
2022-09-23T08:21:47.575Z,11.57
2022-09-23T08:24:18.958Z,13.02
2022-09-23T08:26:48.068Z,17.15
2022-09-23T08:29:17.744Z,13.30
2022-09-23T08:31:45.266Z,12.90
2022-09-23T08:34:12.527Z,11.82
2022-09-23T08:36:39.966Z,11.07
2022-09-23T08:39:07.362Z,11.88
2022-09-23T08:41:34.646Z,12.35
2022-09-23T08:44:26.626Z,11.52
2022-09-23T08:47:51.866Z,12.90
2022-09-23T08:50:22.992Z,10.98
2022-09-23T08:53:01.671Z,10.70
2022-09-23T08:55:50.934Z,13.32
2022-09-23T08:59:00.894Z,12.77
2022-09-23T09:01:52.617Z,10.13
2022-09-23T09:04:46.993Z,10.23
2022-09-23T09:10:22.502Z,12.80
2022-09-23T09:13:35.800Z,16.58
2022-09-23T09:17:01.074Z,11.13
2022-09-23T09:19:54.184Z,10.60
2022-09-23T09:23:00.404Z,9.35
2022-09-23T09:25:38.450Z,12.07
2022-09-23T09:28:26.556Z,10.77
2022-09-23T09:31:02.538Z,13.27
2022-09-23T09:36:40.534Z,12.02
2022-09-23T09:39:13.974Z,15.10
2022-09-23T09:41:47.526Z,10.93
2022-09-23T09:44:48.522Z,11.73
2022-09-23T09:47:33.450Z,11.10
2022-09-23T09:50:15.607Z,12.32
2022-09-23T09:52:43.242Z,10.95
2022-09-23T09:55:13.023Z,11.40
2022-09-23T09:57:48.035Z,8.57
2022-09-23T10:00:27.679Z,12.30
2022-09-23T10:02:59.403Z,10.57
2022-09-23T10:05:28.256Z,13.10
2022-09-23T10:07:55.608Z,10.32
2022-09-23T10:10:33.899Z,11.82
2022-09-23T10:13:16.085Z,18.42
2022-09-23T10:15:45.361Z,14.05
2022-09-23T10:18:39.267Z,10.45
2022-09-23T10:21:13.218Z,10.38
2022-09-23T10:23:47.673Z,10.32
2022-09-23T10:26:18.410Z,11.23
2022-09-23T10:28:55.569Z,11.20
2022-09-23T10:31:30.139Z,12.48
2022-09-23T10:34:24.007Z,9.73
2022-09-23T10:37:28.009Z,10.88
2022-09-23T10:40:13.487Z,9.25
2022-09-23T10:43:27.024Z,11.47
2022-09-23T10:46:22.086Z,11.05
2022-09-23T10:49:44.028Z,11.88
2022-09-23T10:52:27.086Z,10.95
2022-09-23T10:55:01.833Z,11.27
2022-09-23T10:57:49.601Z,11.07
2022-09-23T11:00:51.794Z,13.85
2022-09-23T11:04:02.102Z,9.60
2022-09-23T11:06:32.198Z,10.25
2022-09-23T11:09:33.013Z,11.90
2022-09-23T11:12:38.113Z,10.80
2022-09-23T11:15:26.733Z,12.10
2022-09-23T11:18:11.844Z,10.90
2022-09-23T11:21:09.327Z,10.38
2022-09-23T11:24:17.706Z,11.05
2022-09-23T11:27:41.360Z,14.88
2022-09-23T11:30:17.099Z,12.75
2022-09-23T11:33:13.867Z,10.18
2022-09-23T11:35:49.109Z,11.93
2022-09-23T11:38:30.257Z,11.43
2022-09-23T11:41:11.665Z,10.88
2022-09-23T11:43:40.856Z,11.93
2022-09-23T11:46:59.878Z,11.82
2022-09-23T11:49:50.317Z,14.43
2022-09-23T11:52:41.654Z,11.90
2022-09-23T11:55:32.317Z,13.77
2022-09-23T11:58:25.612Z,13.27
2022-09-23T12:01:07.635Z,11.18
2022-09-23T12:04:21.068Z,10.60
2022-09-23T12:07:10.348Z,11.82
2022-09-23T12:10:08.347Z,12.50
2022-09-23T12:12:56.826Z,10.60
2022-09-23T12:16:17.816Z,10.98
2022-09-23T12:19:30.895Z,11.68
2022-09-23T12:22:40.193Z,10.98
2022-09-23T12:25:07.277Z,12.73
2022-09-23T12:27:48.090Z,10.68
2022-09-23T12:30:23.399Z,10.77
2022-09-23T12:32:51.280Z,9.38
2022-09-23T12:35:32.096Z,10.98
2022-09-23T12:38:01.437Z,13.20
2022-09-23T12:40:40.790Z,10.75
2022-09-23T12:43:27.277Z,12.88
2022-09-23T12:48:21.433Z,12.43
2022-09-23T12:51:19.662Z,12.95
2022-09-23T12:54:14.213Z,12.68
2022-09-23T12:56:42.116Z,11.63
2022-09-23T12:59:33.071Z,13.43
2022-09-23T13:02:33.434Z,14.50
2022-09-23T13:05:42.055Z,12.05
2022-09-23T13:08:16.546Z,11.48
2022-09-23T13:11:06.244Z,12.35
2022-09-23T13:13:44.643Z,10.43
2022-09-23T13:16:37.940Z,12.68
2022-09-23T13:19:09.125Z,11.57
2022-09-23T13:21:45.813Z,13.63
2022-09-23T13:24:33.558Z,14.98
2022-09-23T13:27:12.172Z,13.85
2022-09-23T13:30:23.624Z,14.98
2022-09-23T13:33:29.681Z,13.30
2022-09-23T13:36:02.701Z,11.30
2022-09-23T13:38:32.572Z,11.35
2022-09-23T13:41:05.422Z,13.60
2022-09-23T13:43:42.559Z,14.13
2022-09-23T13:46:14.477Z,13.38
2022-09-23T13:48:45.407Z,14.27
2022-09-23T13:51:27.156Z,15.60
2022-09-23T13:53:57.780Z,11.30
2022-09-23T13:56:28.538Z,12.07
2022-09-23T13:59:31.613Z,13.88
2022-09-23T14:02:10.550Z,11.80
2022-09-23T14:04:38.519Z,11.98
2022-09-23T14:07:08.046Z,13.50
2022-09-23T14:09:37.104Z,12.77
2022-09-23T14:12:06.870Z,10.82
2022-09-23T14:14:37.098Z,12.35
2022-09-23T14:17:06.535Z,13.85
2022-09-23T14:19:35.401Z,18.60
2022-09-23T14:22:02.686Z,11.60
2022-09-23T14:24:33.564Z,11.55
2022-09-23T14:27:06.625Z,12.30
2022-09-23T14:29:52.233Z,11.95
2022-09-23T14:32:26.794Z,12.18
2022-09-23T14:34:59.681Z,12.10
2022-09-23T14:37:47.892Z,12.82
2022-09-23T14:40:31.091Z,12.77
2022-09-23T14:43:26.293Z,11.65
2022-09-23T14:45:58.984Z,11.95
2022-09-23T14:48:34.137Z,13.95
2022-09-23T14:51:06.218Z,15.83
2022-09-23T14:53:42.508Z,11.20
2022-09-23T14:56:14.937Z,11.82
2022-09-23T14:58:57.676Z,13.38
2022-09-23T15:01:30.636Z,10.60
2022-09-23T15:04:13.659Z,11.18
2022-09-23T15:07:16.386Z,12.05
2022-09-23T15:09:45.434Z,12.85
2022-09-23T15:12:20.694Z,12.82
2022-09-23T15:14:58.505Z,11.38
2022-09-23T15:17:35.158Z,12.77
2022-09-23T15:20:23.072Z,11.90
2022-09-23T15:22:55.172Z,11.55
2022-09-23T15:25:41.749Z,14.35
2022-09-23T15:28:08.614Z,12.57
2022-09-23T15:30:38.141Z,13.73
2022-09-23T15:33:06.629Z,11.52
2022-09-23T15:35:34.130Z,12.32
2022-09-23T15:38:02.788Z,14.65
2022-09-23T15:40:33.919Z,12.68
2022-09-23T15:43:21.412Z,14.80
2022-09-23T15:45:59.075Z,14.15
2022-09-23T15:48:39.445Z,13.45
2022-09-23T15:51:09.720Z,18.33
2022-09-23T15:53:39.557Z,15.45
2022-09-23T15:56:06.649Z,16.90
2022-09-23T15:58:33.599Z,15.60
2022-09-23T16:01:01.373Z,13.88
2022-09-23T16:03:28.933Z,13.32
2022-09-23T16:06:00.431Z,14.18
2022-09-23T16:08:28.992Z,16.30
2022-09-23T16:10:56.558Z,13.93
2022-09-23T16:13:24.025Z,13.60
2022-09-23T16:15:51.156Z,14.15
2022-09-23T16:18:18.278Z,12.13
2022-09-23T16:20:47.166Z,14.15
2022-09-23T16:23:38.691Z,14.32
2022-09-23T16:26:14.326Z,12.70
2022-09-23T16:28:45.222Z,13.25
2022-09-23T16:31:16.183Z,16.25
2022-09-23T16:33:45.188Z,15.52
2022-09-23T16:36:33.453Z,12.32
2022-09-23T16:39:04.965Z,11.73
2022-09-23T16:41:32.422Z,15.30
2022-09-23T16:44:02.056Z,13.27
2022-09-23T16:46:31.447Z,14.98
2022-09-23T16:48:59.298Z,15.70
2022-09-23T16:51:30.380Z,15.27
2022-09-23T16:53:59.305Z,14.05
2022-09-23T16:56:29.630Z,17.13
2022-09-23T16:58:57.194Z,16.10
2022-09-23T17:01:46.410Z,14.90
2022-09-23T17:04:16.429Z,17.48
2022-09-23T17:06:46.308Z,15.38
2022-09-23T17:09:13.822Z,13.50
2022-09-23T17:11:46.900Z,15.32
2022-09-23T17:14:15.664Z,15.77
2022-09-23T17:16:43.169Z,14.07
2022-09-23T17:19:12.092Z,13.77
2022-09-23T17:21:39.369Z,16.08
2022-09-23T17:24:07.383Z,13.88
2022-09-23T17:26:34.971Z,16.30
2022-09-23T17:29:02.249Z,14.27
2022-09-23T17:31:30.588Z,14.23
2022-09-23T17:33:57.736Z,14.20
2022-09-23T17:36:24.910Z,12.50
2022-09-23T17:38:54.658Z,17.50
2022-09-23T17:41:22.523Z,11.73
2022-09-23T17:43:56.602Z,13.38
2022-09-23T17:46:23.767Z,14.18
2022-09-23T17:48:55.651Z,13.88
2022-09-23T17:51:25.254Z,12.40
2022-09-23T17:53:53.264Z,15.70
2022-09-23T17:56:24.989Z,13.55
2022-09-23T17:58:55.489Z,15.23
2022-09-23T18:01:26.664Z,15.65
2022-09-23T18:03:59.767Z,13.32
2022-09-23T18:06:31.594Z,12.52
2022-09-23T18:09:06.503Z,14.35
2022-09-23T18:11:37.272Z,13.63
2022-09-23T18:14:19.120Z,14.63
2022-09-23T18:16:49.925Z,14.45
2022-09-23T18:19:21.028Z,14.32
2022-09-23T18:21:55.965Z,14.57
2022-09-23T18:24:32.883Z,13.75
2022-09-23T18:27:01.789Z,13.45
2022-09-23T18:29:29.553Z,15.70
2022-09-23T18:31:56.814Z,13.57
2022-09-23T18:34:24.258Z,14.73
2022-09-23T18:36:51.637Z,13.93
2022-09-23T18:39:18.764Z,17.17
2022-09-23T18:41:45.829Z,16.27
2022-09-23T18:44:12.894Z,12.80
2022-09-23T18:46:40.100Z,11.88
2022-09-23T18:49:25.663Z,15.25
2022-09-23T18:51:55.779Z,13.63
2022-09-23T18:54:28.820Z,12.50
2022-09-23T18:56:56.621Z,14.30
2022-09-23T18:59:28.027Z,14.93
2022-09-23T19:01:56.012Z,14.43
2022-09-23T19:04:24.784Z,14.57
2022-09-23T19:06:52.076Z,15.48
2022-09-23T19:09:19.442Z,15.80
2022-09-23T19:11:46.644Z,14.55
2022-09-23T19:14:14.266Z,15.77
2022-09-23T19:16:41.689Z,13.45
2022-09-23T19:19:09.338Z,16.02
2022-09-23T19:21:38.902Z,14.18
2022-09-23T19:24:08.153Z,16.58
2022-09-23T19:26:39.171Z,18.67
2022-09-23T19:29:11.495Z,14.98
2022-09-23T19:31:40.004Z,15.65
2022-09-23T19:34:19.657Z,19.58
2022-09-23T19:36:47.954Z,16.50
2022-09-23T19:39:24.358Z,16.10
2022-09-23T19:41:54.446Z,16.67
2022-09-23T19:44:24.054Z,18.95
2022-09-23T19:46:56.042Z,16.70
2022-09-23T19:49:25.436Z,17.88
2022-09-23T19:51:55.484Z,20.42
2022-09-23T19:54:26.478Z,17.08
2022-09-23T19:56:53.589Z,16.85
2022-09-23T19:59:20.804Z,16.65
2022-09-23T20:01:48.621Z,16.25
2022-09-23T20:04:16.927Z,17.95
2022-09-23T20:06:45.789Z,16.15
2022-09-23T20:09:12.886Z,17.35
2022-09-23T20:11:44.042Z,17.60
2022-09-23T20:14:11.988Z,18.02
2022-09-23T20:16:39.226Z,22.30
2022-09-23T20:19:06.464Z,16.58
2022-09-23T20:21:35.276Z,18.55
2022-09-23T20:24:05.648Z,18.70
2022-09-23T20:26:52.153Z,19.52
2022-09-23T20:31:46.432Z,17.10
2022-09-23T20:34:13.600Z,21.75
2022-09-23T20:36:41.691Z,20.40
2022-09-23T20:39:10.090Z,17.58
2022-09-23T20:41:39.217Z,19.92
2022-09-23T20:44:12.189Z,17.60
2022-09-23T20:46:46.989Z,18.48
2022-09-23T20:49:16.934Z,19.67
2022-09-23T20:51:44.755Z,18.95
2022-09-23T20:54:12.219Z,17.65
2022-09-23T20:56:39.534Z,18.98
2022-09-23T20:59:06.673Z,20.23
2022-09-23T21:01:35.464Z,17.70
2022-09-23T21:04:07.906Z,21.15
2022-09-23T21:06:36.685Z,21.95
2022-09-23T21:09:05.099Z,20.50
2022-09-23T21:11:32.558Z,20.40
2022-09-23T21:14:02.485Z,22.05
2022-09-23T21:16:30.479Z,21.85
2022-09-23T21:18:58.604Z,22.85
2022-09-23T21:21:26.229Z,23.67
2022-09-23T21:23:53.209Z,23.27
2022-09-23T21:26:26.009Z,26.85
2022-09-23T21:28:59.488Z,24.50
2022-09-23T21:31:33.484Z,27.02
2022-09-23T21:34:05.663Z,23.17
2022-09-23T21:36:37.081Z,25.02
2022-09-23T21:39:09.293Z,25.30
2022-09-23T21:41:37.078Z,24.08
2022-09-23T21:44:05.043Z,25.13
2022-09-23T21:46:33.803Z,24.73
2022-09-23T21:49:03.296Z,25.52
2022-09-23T21:51:37.772Z,25.02
2022-09-23T21:54:05.678Z,24.30
2022-09-23T21:56:36.292Z,22.90
2022-09-23T21:59:04.040Z,24.08
2022-09-23T22:01:37.580Z,25.45
2022-09-23T22:04:13.693Z,23.52
2022-09-23T22:06:41.611Z,23.52
2022-09-23T22:09:12.996Z,24.83
2022-09-23T22:11:59.996Z,27.27
2022-09-23T22:14:27.788Z,28.02
2022-09-23T22:16:58.881Z,26.67
2022-09-23T22:19:44.303Z,27.02
2022-09-23T22:22:16.362Z,26.20
2022-09-23T22:24:46.141Z,30.90
2022-09-23T22:27:16.234Z,30.08
2022-09-23T22:30:02.019Z,29.25
2022-09-23T22:32:41.008Z,27.58
2022-09-23T22:35:19.205Z,29.42
2022-09-23T22:37:47.339Z,27.63
2022-09-23T22:40:16.244Z,28.20
2022-09-23T22:42:44.136Z,30.27
2022-09-23T22:45:12.406Z,28.60
2022-09-23T22:47:44.000Z,28.63
2022-09-23T22:50:13.928Z,29.77
2022-09-23T22:52:41.128Z,34.25
2022-09-23T22:55:08.869Z,31.15
2022-09-23T22:57:36.819Z,29.10
2022-09-23T23:00:06.443Z,29.55
2022-09-23T23:02:33.533Z,32.42
2022-09-23T23:05:00.924Z,31.52
2022-09-23T23:07:27.995Z,31.35
2022-09-23T23:09:55.550Z,33.40
2022-09-23T23:12:22.679Z,32.28
2022-09-23T23:14:50.137Z,31.25
2022-09-23T23:17:18.659Z,33.03
2022-09-23T23:19:45.991Z,33.40
2022-09-23T23:22:13.050Z,38.13
2022-09-23T23:24:40.116Z,36.03
2022-09-23T23:27:07.050Z,33.15
2022-09-23T23:29:34.006Z,33.30
2022-09-23T23:32:01.337Z,35.67
2022-09-23T23:34:28.496Z,33.15
2022-09-23T23:36:55.672Z,34.10
2022-09-23T23:39:24.901Z,34.50
2022-09-23T23:41:56.837Z,35.75
2022-09-23T23:44:26.397Z,32.63
2022-09-23T23:46:54.539Z,32.25
2022-09-23T23:49:21.947Z,32.13
2022-09-23T23:51:49.295Z,33.22
2022-09-23T23:54:16.529Z,36.03
2022-09-23T23:56:43.778Z,37.05
2022-09-23T23:59:11.235Z,39.25
